createdAt,value
2023-04-11T00:00:02.386Z,47.02
2023-04-11T00:01:33.779Z,46.34
2023-04-11T00:01:55.963Z,46.06
2023-04-11T00:02:17.819Z,46.45
2023-04-11T00:02:39.696Z,46.54
2023-04-11T00:03:02.750Z,46.75
2023-04-11T00:03:25.331Z,46.35
2023-04-11T00:03:47.311Z,46.29
2023-04-11T00:04:13.222Z,46.56
2023-04-11T00:04:39.161Z,46.69
2023-04-11T00:05:03.328Z,46.41
2023-04-11T00:05:25.588Z,46.47
2023-04-11T00:05:48.619Z,46.06
2023-04-11T00:06:11.158Z,46.17
2023-04-11T00:06:33.777Z,46.16
2023-04-11T00:06:55.535Z,46.09
2023-04-11T00:07:17.283Z,46.25
2023-04-11T00:07:38.923Z,46.27
2023-04-11T00:08:01.521Z,46.04
2023-04-11T00:08:23.180Z,46.27
2023-04-11T00:08:44.759Z,46.43
2023-04-11T00:09:06.466Z,46.52
2023-04-11T00:09:29.094Z,46.32
2023-04-11T00:09:50.745Z,46.41
2023-04-11T00:10:12.456Z,46.49
2023-04-11T00:10:34.075Z,46.68
2023-04-11T00:10:56.752Z,46.58
2023-04-11T00:11:18.753Z,46.64
2023-04-11T00:11:40.426Z,46.61
2023-04-11T00:12:02.328Z,46.60
2023-04-11T00:12:24.395Z,46.63
2023-04-11T00:12:47.164Z,46.20
2023-04-11T00:13:10.275Z,46.25
2023-04-11T00:13:31.953Z,46.54
2023-04-11T00:13:57.386Z,46.66
2023-04-11T00:14:20.891Z,46.57
2023-04-11T00:14:45.275Z,46.79
2023-04-11T00:15:08.662Z,46.51
2023-04-11T00:15:32.499Z,46.41
2023-04-11T00:15:55.690Z,46.55
2023-04-11T00:16:19.498Z,46.38
2023-04-11T00:16:41.552Z,46.52
2023-04-11T00:17:05.981Z,46.66
2023-04-11T00:17:28.741Z,46.80
2023-04-11T00:17:50.493Z,47.41
2023-04-11T00:18:12.664Z,47.38
2023-04-11T00:18:36.931Z,47.67
2023-04-11T00:18:58.538Z,47.32
2023-04-11T00:19:23.336Z,46.65
2023-04-11T00:19:46.013Z,46.38
2023-04-11T00:20:10.884Z,46.52
2023-04-11T00:20:32.578Z,46.53
2023-04-11T00:20:55.521Z,46.53
2023-04-11T00:21:17.390Z,46.61
2023-04-11T00:21:40.498Z,46.68
2023-04-11T00:22:02.731Z,46.66
2023-04-11T00:22:24.985Z,46.32
2023-04-11T00:22:46.793Z,46.13
2023-04-11T00:23:09.480Z,46.16
2023-04-11T00:23:31.179Z,46.00
2023-04-11T00:23:53.256Z,46.07
2023-04-11T00:24:15.059Z,45.57
2023-04-11T00:24:36.682Z,45.38
2023-04-11T00:24:58.278Z,45.18
2023-04-11T00:25:21.231Z,45.41
2023-04-11T00:25:42.899Z,45.69
2023-04-11T00:26:05.423Z,45.78
2023-04-11T00:26:27.770Z,45.67
2023-04-11T00:26:50.050Z,45.51
2023-04-11T00:27:11.667Z,45.54
2023-04-11T00:27:34.328Z,45.53
2023-04-11T00:27:55.945Z,45.68
2023-04-11T00:28:17.564Z,45.45
2023-04-11T00:28:39.217Z,45.51
2023-04-11T00:29:01.793Z,45.35
2023-04-11T00:29:23.387Z,45.32
2023-04-11T00:29:45.112Z,45.30
2023-04-11T00:30:07.973Z,45.13
2023-04-11T00:30:30.663Z,45.22
2023-04-11T00:30:52.288Z,45.48
2023-04-11T00:31:14.230Z,45.05
2023-04-11T00:31:36.201Z,45.06
2023-04-11T00:31:57.897Z,44.96
2023-04-11T00:32:19.662Z,45.12
2023-04-11T00:32:42.274Z,45.36
2023-04-11T00:33:10.931Z,45.24
2023-04-11T00:33:35.354Z,45.23
2023-04-11T00:33:59.704Z,45.15
2023-04-11T00:34:25.236Z,44.95
2023-04-11T00:34:47.518Z,45.16
2023-04-11T00:35:15.170Z,45.68
2023-04-11T00:35:44.434Z,46.04
2023-04-11T00:36:11.752Z,45.83
2023-04-11T00:37:14.124Z,45.72
2023-04-11T00:37:36.973Z,46.03
2023-04-11T00:37:58.814Z,46.17
2023-04-11T00:38:22.020Z,46.24
2023-04-11T00:38:44.571Z,45.70
2023-04-11T00:39:07.292Z,45.88
2023-04-11T00:39:31.745Z,46.12
2023-04-11T00:39:55.828Z,45.65
2023-04-11T00:40:18.746Z,45.60
2023-04-11T00:40:41.808Z,45.24
2023-04-11T00:41:03.607Z,44.98
2023-04-11T00:41:25.329Z,45.16
2023-04-11T00:41:47.119Z,45.25
2023-04-11T00:42:09.138Z,44.63
2023-04-11T00:42:34.295Z,44.79
2023-04-11T00:42:56.217Z,45.02
2023-04-11T00:43:17.870Z,45.09
2023-04-11T00:43:40.609Z,45.18
2023-04-11T00:44:02.445Z,44.87
2023-04-11T00:44:25.445Z,44.90
2023-04-11T00:44:47.478Z,44.94
2023-04-11T00:45:10.362Z,44.74
2023-04-11T00:45:33.442Z,44.71
2023-04-11T00:45:55.337Z,44.45
2023-04-11T00:46:17.958Z,44.67
2023-04-11T00:46:44.813Z,44.79
2023-04-11T00:47:09.107Z,45.05
2023-04-11T00:47:32.652Z,44.97
2023-04-11T00:47:54.506Z,44.78
2023-04-11T00:48:16.560Z,44.70
2023-04-11T00:48:38.383Z,44.83
2023-04-11T00:49:01.135Z,44.84
2023-04-11T00:49:23.013Z,44.58
2023-04-11T00:49:45.808Z,44.50
2023-04-11T00:50:08.297Z,44.49
2023-04-11T00:50:31.059Z,44.73
2023-04-11T00:50:52.750Z,44.76
2023-04-11T00:51:16.096Z,44.97
2023-04-11T00:51:39.458Z,44.82
2023-04-11T00:52:01.923Z,44.94
2023-04-11T00:52:23.883Z,45.09
2023-04-11T00:52:47.991Z,45.02
2023-04-11T00:53:12.912Z,44.86
2023-04-11T00:53:35.358Z,44.94
2023-04-11T00:53:57.147Z,45.16
2023-04-11T00:54:19.061Z,44.95
2023-04-11T00:54:41.896Z,44.61
2023-04-11T00:55:04.350Z,44.67
2023-04-11T00:55:27.189Z,44.99
2023-04-11T00:55:49.893Z,45.21
2023-04-11T00:56:13.138Z,45.43
2023-04-11T00:56:35.196Z,45.63
2023-04-11T00:56:58.910Z,44.90
2023-04-11T00:57:22.810Z,44.79
2023-04-11T00:57:44.984Z,44.74
2023-04-11T00:58:08.905Z,45.41
2023-04-11T00:58:32.112Z,45.15
2023-04-11T00:58:54.475Z,44.72
2023-04-11T00:59:16.454Z,45.09
2023-04-11T00:59:38.481Z,45.23
2023-04-11T01:00:02.919Z,44.93
2023-04-11T01:00:26.996Z,45.07
2023-04-11T01:00:49.911Z,44.84
2023-04-11T01:01:11.973Z,45.09
2023-04-11T01:01:36.276Z,45.41
2023-04-11T01:01:59.590Z,45.30
2023-04-11T01:02:21.677Z,44.72
2023-04-11T01:02:43.865Z,44.79
2023-04-11T01:03:06.957Z,44.41
2023-04-11T01:03:30.253Z,44.49
2023-04-11T01:03:52.653Z,44.96
2023-04-11T01:04:14.393Z,45.15
2023-04-11T01:04:36.136Z,45.07
2023-04-11T01:05:00.616Z,45.07
2023-04-11T01:05:22.495Z,44.75
2023-04-11T01:05:45.966Z,44.90
2023-04-11T01:06:11.080Z,45.38
2023-04-11T01:06:35.648Z,45.54
2023-04-11T01:07:03.867Z,44.64
2023-04-11T01:07:25.977Z,44.79
2023-04-11T01:07:52.349Z,44.68
2023-04-11T01:08:15.201Z,44.82
2023-04-11T01:08:38.313Z,44.89
2023-04-11T01:09:00.337Z,45.03
2023-04-11T01:09:25.333Z,45.02
2023-04-11T01:09:48.769Z,44.88
2023-04-11T01:10:11.402Z,44.63
2023-04-11T01:10:33.547Z,44.73
2023-04-11T01:10:55.587Z,44.71
2023-04-11T01:11:20.107Z,44.59
2023-04-11T01:11:43.658Z,44.55
2023-04-11T01:12:06.911Z,44.68
2023-04-11T01:12:29.953Z,44.61
2023-04-11T01:12:52.932Z,44.54
2023-04-11T01:13:15.445Z,44.68
2023-04-11T01:13:41.770Z,44.62
2023-04-11T01:14:03.845Z,44.55
2023-04-11T01:14:27.225Z,45.50
2023-04-11T01:14:49.430Z,45.49
2023-04-11T01:15:12.566Z,45.75
2023-04-11T01:15:34.268Z,45.71
2023-04-11T01:15:56.404Z,45.40
2023-04-11T01:16:21.303Z,45.57
2023-04-11T01:16:47.047Z,44.81
2023-04-11T01:17:12.575Z,44.77
2023-04-11T01:17:36.175Z,44.47
2023-04-11T01:18:03.086Z,44.25
2023-04-11T01:18:26.717Z,45.00
2023-04-11T01:18:48.938Z,44.93
2023-04-11T01:19:10.860Z,45.42
2023-04-11T01:19:33.589Z,44.97
2023-04-11T01:19:56.415Z,44.89
2023-04-11T01:20:18.457Z,44.86
2023-04-11T01:20:40.259Z,45.16
2023-04-11T01:21:02.306Z,45.17
2023-04-11T01:21:25.408Z,45.11
2023-04-11T01:21:55.662Z,45.22
2023-04-11T01:22:20.798Z,45.23
2023-04-11T01:22:43.064Z,44.98
2023-04-11T01:23:06.390Z,44.43
2023-04-11T01:23:29.862Z,44.77
2023-04-11T01:23:54.209Z,44.53
2023-04-11T01:24:16.319Z,44.84
2023-04-11T01:24:38.138Z,44.55
2023-04-11T01:25:02.198Z,44.70
2023-04-11T01:25:26.674Z,44.64
2023-04-11T01:25:49.298Z,44.95
2023-04-11T01:26:11.349Z,44.81
2023-04-11T01:26:33.430Z,45.07
2023-04-11T01:26:56.751Z,44.85
2023-04-11T01:27:20.483Z,44.74
2023-04-11T01:27:42.447Z,45.02
2023-04-11T01:28:04.465Z,44.83
2023-04-11T01:28:26.934Z,44.71
2023-04-11T01:28:49.823Z,44.83
2023-04-11T01:29:11.833Z,44.90
2023-04-11T01:29:33.635Z,44.92
2023-04-11T01:29:55.349Z,44.93
2023-04-11T01:30:19.442Z,45.05
2023-04-11T01:30:43.387Z,44.97
2023-04-11T01:31:06.697Z,45.10
2023-04-11T01:31:28.548Z,44.71
2023-04-11T01:31:51.492Z,44.77
2023-04-11T01:32:14.226Z,45.11
2023-04-11T01:32:35.984Z,44.83
2023-04-11T01:32:57.804Z,44.50
2023-04-11T01:33:19.665Z,44.29
2023-04-11T01:33:43.187Z,44.29
2023-04-11T01:34:07.380Z,44.52
2023-04-11T01:34:31.676Z,44.52
2023-04-11T01:34:56.764Z,44.60
2023-04-11T01:35:19.196Z,44.56
2023-04-11T01:35:41.182Z,44.25
2023-04-11T01:36:04.403Z,44.80
2023-04-11T01:36:27.090Z,44.34
2023-04-11T01:36:48.880Z,44.63
2023-04-11T01:37:10.776Z,44.61
2023-04-11T01:37:32.793Z,44.89
2023-04-11T01:37:55.544Z,44.90
2023-04-11T01:38:17.455Z,44.90
2023-04-11T01:38:40.694Z,45.09
2023-04-11T01:39:02.435Z,44.80
2023-04-11T01:39:24.211Z,44.96
2023-04-11T01:39:46.853Z,44.78
2023-04-11T01:40:09.591Z,44.40
2023-04-11T01:40:32.649Z,44.33
2023-04-11T01:40:56.060Z,44.11
2023-04-11T01:41:21.007Z,44.44
2023-04-11T01:41:43.800Z,44.23
2023-04-11T01:42:06.743Z,44.53
2023-04-11T01:42:30.752Z,44.45
2023-04-11T01:42:53.438Z,44.36
2023-04-11T01:43:15.807Z,44.61
2023-04-11T01:43:37.645Z,44.59
2023-04-11T01:43:59.542Z,44.58
2023-04-11T01:44:23.024Z,44.69
2023-04-11T01:44:44.827Z,44.63
2023-04-11T01:45:08.218Z,44.89
2023-04-11T01:45:30.791Z,44.83
2023-04-11T01:45:54.548Z,44.64
2023-04-11T01:46:17.065Z,44.74
2023-04-11T01:46:38.887Z,44.91
2023-04-11T01:47:00.831Z,44.60
2023-04-11T01:47:23.757Z,44.81
2023-04-11T01:47:45.586Z,44.88
2023-04-11T01:48:07.723Z,44.90
2023-04-11T01:48:29.663Z,45.13
2023-04-11T01:48:54.965Z,44.85
2023-04-11T01:49:19.161Z,45.25
2023-04-11T01:49:42.431Z,45.25
2023-04-11T01:50:04.862Z,45.46
2023-04-11T01:50:26.594Z,45.06
2023-04-11T01:50:50.887Z,45.31
2023-04-11T01:51:12.729Z,45.82
2023-04-11T01:51:34.514Z,45.44
2023-04-11T01:51:56.053Z,44.97
2023-04-11T01:52:18.656Z,44.91
2023-04-11T01:52:41.114Z,45.08
2023-04-11T01:53:04.094Z,44.73
2023-04-11T01:53:25.863Z,44.62
2023-04-11T01:53:49.806Z,44.83
2023-04-11T01:54:11.577Z,44.76
2023-04-11T01:54:33.227Z,44.65
2023-04-11T01:54:55.362Z,44.70
2023-04-11T01:55:17.549Z,45.01
2023-04-11T01:55:40.279Z,44.65
2023-04-11T01:56:01.953Z,44.34
2023-04-11T01:56:23.677Z,44.74
2023-04-11T01:56:45.565Z,44.61
2023-04-11T01:57:08.240Z,44.62
2023-04-11T01:57:31.011Z,44.37
2023-04-11T01:57:52.952Z,44.31
2023-04-11T01:58:14.612Z,43.89
2023-04-11T01:58:37.391Z,43.95
2023-04-11T01:59:01.113Z,44.07
2023-04-11T01:59:22.721Z,44.02
2023-04-11T01:59:44.378Z,43.91
2023-04-11T02:00:08.923Z,44.19
2023-04-11T02:00:37.742Z,44.35
2023-04-11T02:00:59.357Z,44.43
2023-04-11T02:01:21.682Z,44.84
2023-04-11T02:01:44.186Z,44.90
2023-04-11T02:02:07.071Z,44.83
2023-04-11T02:02:28.948Z,44.80
2023-04-11T02:02:50.849Z,44.65
2023-04-11T02:03:12.756Z,44.18
2023-04-11T02:03:34.801Z,44.21
2023-04-11T02:03:57.869Z,44.30
2023-04-11T02:04:19.758Z,44.06
2023-04-11T02:04:41.514Z,44.39
2023-04-11T02:05:03.492Z,44.57
2023-04-11T02:05:25.243Z,44.23
2023-04-11T02:05:48.015Z,44.59
2023-04-11T02:06:09.741Z,44.38
2023-04-11T02:06:32.105Z,44.52
2023-04-11T02:06:53.771Z,44.11
2023-04-11T02:07:16.471Z,44.39
2023-04-11T02:07:38.325Z,44.39
2023-04-11T02:07:59.987Z,44.83
2023-04-11T02:08:21.628Z,44.84
2023-04-11T02:08:44.548Z,44.95
2023-04-11T02:09:07.978Z,44.50
2023-04-11T02:09:29.625Z,44.46
2023-04-11T02:09:51.247Z,44.74
2023-04-11T02:10:13.897Z,44.78
2023-04-11T02:10:35.624Z,44.81
2023-04-11T02:10:57.326Z,44.65
2023-04-11T02:11:19.164Z,44.43
2023-04-11T02:11:44.905Z,44.52
2023-04-11T02:12:06.659Z,44.35
2023-04-11T02:12:28.273Z,44.72
2023-04-11T02:12:49.928Z,44.56
2023-04-11T02:13:11.638Z,44.56
2023-04-11T02:13:34.289Z,44.53
2023-04-11T02:13:55.971Z,44.50
2023-04-11T02:14:20.355Z,44.37
2023-04-11T02:14:43.387Z,44.61
2023-04-11T02:15:09.241Z,44.74
2023-04-11T02:15:30.992Z,45.26
2023-04-11T02:15:52.694Z,45.24
2023-04-11T02:16:15.048Z,45.16
2023-04-11T02:16:49.960Z,45.01
2023-04-11T02:17:14.067Z,45.08
2023-04-11T02:17:36.776Z,45.34
2023-04-11T02:18:00.170Z,45.15
2023-04-11T02:18:21.968Z,45.10
2023-04-11T02:18:45.196Z,44.96
2023-04-11T02:19:07.860Z,44.62
2023-04-11T02:19:30.957Z,44.49
2023-04-11T02:19:52.728Z,43.93
2023-04-11T02:20:14.831Z,43.94
2023-04-11T02:20:37.348Z,43.83
2023-04-11T02:21:00.666Z,44.10
2023-04-11T02:21:22.813Z,44.53
2023-04-11T02:21:45.923Z,44.63
2023-04-11T02:22:08.948Z,44.47
2023-04-11T02:22:31.694Z,44.54
2023-04-11T02:22:53.408Z,44.35
2023-04-11T02:23:16.231Z,44.00
2023-04-11T02:23:38.054Z,43.83
2023-04-11T02:24:00.952Z,43.97
2023-04-11T02:24:25.296Z,43.86
2023-04-11T02:24:47.530Z,43.96
2023-04-11T02:25:09.834Z,43.99
2023-04-11T02:25:31.798Z,44.10
2023-04-11T02:25:54.394Z,44.26
2023-04-11T02:26:17.064Z,44.15
2023-04-11T02:26:39.961Z,44.12
2023-04-11T02:27:02.199Z,44.39
2023-04-11T02:27:23.815Z,44.13
2023-04-11T02:27:45.536Z,44.12
2023-04-11T02:28:08.456Z,44.27
2023-04-11T02:28:30.392Z,44.30
2023-04-11T02:28:51.983Z,44.13
2023-04-11T02:29:16.004Z,44.37
2023-04-11T02:29:38.638Z,43.88
2023-04-11T02:30:00.804Z,44.07
2023-04-11T02:30:22.667Z,44.07
2023-04-11T02:30:45.450Z,44.27
2023-04-11T02:31:07.557Z,43.84
2023-04-11T02:31:30.799Z,43.97
2023-04-11T02:31:52.589Z,44.25
2023-04-11T02:32:14.409Z,44.02
2023-04-11T02:32:37.757Z,44.33
2023-04-11T02:33:00.953Z,44.30
2023-04-11T02:33:22.943Z,44.18
2023-04-11T02:33:44.557Z,44.54
2023-04-11T02:34:06.232Z,44.41
2023-04-11T02:34:30.900Z,44.49
2023-04-11T02:34:52.518Z,44.30
2023-04-11T02:35:14.149Z,44.08
2023-04-11T02:35:36.121Z,44.23
2023-04-11T02:35:59.158Z,44.40
2023-04-11T02:36:22.888Z,44.38
2023-04-11T02:36:45.763Z,44.36
2023-04-11T02:37:07.438Z,44.19
2023-04-11T02:37:29.082Z,44.49
2023-04-11T02:37:51.703Z,44.64
2023-04-11T02:38:13.704Z,44.50
2023-04-11T02:38:37.535Z,44.72
2023-04-11T02:38:59.228Z,44.74
2023-04-11T02:39:23.906Z,44.65
2023-04-11T02:39:46.903Z,44.73
2023-04-11T02:40:10.674Z,44.54
2023-04-11T02:40:33.262Z,44.96
2023-04-11T02:40:54.953Z,45.26
2023-04-11T02:41:16.622Z,44.93
2023-04-11T02:41:38.821Z,45.47
2023-04-11T02:42:01.439Z,45.33
2023-04-11T02:42:23.132Z,45.22
2023-04-11T02:42:44.960Z,44.80
2023-04-11T02:43:06.810Z,44.97
2023-04-11T02:43:29.616Z,44.72
2023-04-11T02:43:51.286Z,44.58
2023-04-11T02:44:14.534Z,44.57
2023-04-11T02:44:37.604Z,44.41
2023-04-11T02:45:00.044Z,43.97
2023-04-11T02:45:24.765Z,44.24
2023-04-11T02:45:46.848Z,44.24
2023-04-11T02:46:12.537Z,44.52
2023-04-11T02:46:35.156Z,44.66
2023-04-11T02:46:59.427Z,44.79
2023-04-11T02:47:21.747Z,44.73
2023-04-11T02:47:43.452Z,44.56
2023-04-11T02:48:06.294Z,44.68
2023-04-11T02:48:33.020Z,44.79
2023-04-11T02:48:54.873Z,44.98
2023-04-11T02:49:16.790Z,44.54
2023-04-11T02:49:42.305Z,44.66
2023-04-11T02:50:07.230Z,44.32
2023-04-11T02:50:34.216Z,43.93
2023-04-11T02:50:55.872Z,44.25
2023-04-11T02:51:17.544Z,44.35
2023-04-11T02:51:40.360Z,44.51
2023-04-11T02:52:02.140Z,44.43
2023-04-11T02:52:23.916Z,44.41
2023-04-11T02:52:47.857Z,44.28
2023-04-11T02:53:11.393Z,44.02
2023-04-11T02:53:39.531Z,43.86
2023-04-11T02:54:01.226Z,43.95
2023-04-11T02:54:23.160Z,44.29
2023-04-11T02:54:45.051Z,44.59
2023-04-11T02:55:10.570Z,44.68
2023-04-11T02:55:32.282Z,44.41
2023-04-11T02:55:54.067Z,44.62
2023-04-11T02:56:18.864Z,45.06
2023-04-11T02:56:43.569Z,44.99
2023-04-11T02:57:05.470Z,44.70
2023-04-11T02:57:27.765Z,44.56
2023-04-11T02:57:50.680Z,45.28
2023-04-11T02:58:17.655Z,44.82
2023-04-11T02:58:41.718Z,44.75
2023-04-11T02:59:03.853Z,44.86
2023-04-11T02:59:25.834Z,45.23
2023-04-11T02:59:47.611Z,44.88
2023-04-11T03:00:14.176Z,44.68
2023-04-11T03:00:44.049Z,44.64
2023-04-11T03:01:07.974Z,44.58
2023-04-11T03:01:32.869Z,44.88
2023-04-11T03:01:58.119Z,44.77
2023-04-11T03:02:21.083Z,44.51
2023-04-11T03:02:44.349Z,44.65
2023-04-11T03:03:06.746Z,44.71
2023-04-11T03:03:34.207Z,44.74
2023-04-11T03:03:56.278Z,44.54
2023-04-11T03:04:23.584Z,44.82
2023-04-11T03:04:53.341Z,45.01
2023-04-11T03:05:15.803Z,45.05
2023-04-11T03:05:40.689Z,44.76
2023-04-11T03:06:03.870Z,44.51
2023-04-11T03:06:27.090Z,44.72
2023-04-11T03:06:54.019Z,44.94
2023-04-11T03:07:15.947Z,44.80
2023-04-11T03:07:38.506Z,44.74
2023-04-11T03:08:01.300Z,44.88
2023-04-11T03:08:25.658Z,45.03
2023-04-11T03:08:49.986Z,44.90
2023-04-11T03:09:12.157Z,44.82
2023-04-11T03:09:34.842Z,44.43
2023-04-11T03:09:56.512Z,44.27
2023-04-11T03:10:19.561Z,44.46
2023-04-11T03:10:41.476Z,44.51
2023-04-11T03:11:07.054Z,44.53
2023-04-11T03:11:28.653Z,44.64
2023-04-11T03:11:50.766Z,45.03
2023-04-11T03:12:12.411Z,45.12
2023-04-11T03:12:46.041Z,44.81
2023-04-11T03:13:08.325Z,44.74
2023-04-11T03:13:31.295Z,44.93
2023-04-11T03:13:52.947Z,44.96
2023-04-11T03:14:15.765Z,44.73
2023-04-11T03:14:37.681Z,44.79
2023-04-11T03:14:59.349Z,44.89
2023-04-11T03:15:21.034Z,45.04
2023-04-11T03:15:43.030Z,44.91
2023-04-11T03:16:08.034Z,44.98
2023-04-11T03:16:29.788Z,44.92
2023-04-11T03:16:51.933Z,45.08
2023-04-11T03:17:14.288Z,44.95
2023-04-11T03:17:36.975Z,45.22
2023-04-11T03:17:59.648Z,45.23
2023-04-11T03:18:22.437Z,45.26
2023-04-11T03:18:44.241Z,45.21
2023-04-11T03:19:08.035Z,45.80
2023-04-11T03:19:29.785Z,45.68
2023-04-11T03:19:52.677Z,45.34
2023-04-11T03:20:19.527Z,45.12
2023-04-11T03:20:43.842Z,44.84
2023-04-11T03:21:09.023Z,44.99
2023-04-11T03:21:31.498Z,45.05
2023-04-11T03:21:53.522Z,44.70
2023-04-11T03:22:17.294Z,45.00
2023-04-11T03:22:39.118Z,44.86
2023-04-11T03:23:00.963Z,44.65
2023-04-11T03:23:22.868Z,44.75
2023-04-11T03:23:46.593Z,44.86
2023-04-11T03:24:09.535Z,44.57
2023-04-11T03:24:32.310Z,44.25
2023-04-11T03:24:54.014Z,44.55
2023-04-11T03:25:19.902Z,44.67
2023-04-11T03:25:44.591Z,44.48
2023-04-11T03:26:07.691Z,44.08
2023-04-11T03:26:29.782Z,44.55
2023-04-11T03:26:56.095Z,44.09
2023-04-11T03:27:18.754Z,44.27
2023-04-11T03:27:42.925Z,44.23
2023-04-11T03:28:06.167Z,44.29
2023-04-11T03:28:28.943Z,44.53
2023-04-11T03:28:50.731Z,44.31
2023-04-11T03:29:14.212Z,44.35
2023-04-11T03:29:49.572Z,44.40
2023-04-11T03:30:20.432Z,44.58
2023-04-11T03:30:43.404Z,44.48
2023-04-11T03:31:08.789Z,44.55
2023-04-11T03:31:30.844Z,44.90
2023-04-11T03:31:52.604Z,44.71
2023-04-11T03:32:14.474Z,44.76
2023-04-11T03:32:37.979Z,44.49
2023-04-11T03:33:01.026Z,44.33
2023-04-11T03:33:24.372Z,44.47
2023-04-11T03:33:46.669Z,44.55
2023-04-11T03:34:08.277Z,44.50
2023-04-11T03:34:31.186Z,44.48
2023-04-11T03:34:53.209Z,44.43
2023-04-11T03:35:16.961Z,44.43
2023-04-11T03:35:40.800Z,44.20
2023-04-11T03:36:03.554Z,44.43
2023-04-11T03:36:27.465Z,44.49
2023-04-11T03:36:49.319Z,44.62
2023-04-11T03:37:11.142Z,44.49
2023-04-11T03:37:33.716Z,44.25
2023-04-11T03:37:55.432Z,44.28
2023-04-11T03:38:20.934Z,44.04
2023-04-11T03:38:42.678Z,44.20
2023-04-11T03:39:04.529Z,44.21
2023-04-11T03:39:26.287Z,44.14
2023-04-11T03:39:48.160Z,44.22
2023-04-11T03:40:11.983Z,44.42
2023-04-11T03:40:38.513Z,44.52
2023-04-11T03:41:10.384Z,44.09
2023-04-11T03:41:33.067Z,44.25
2023-04-11T03:41:55.809Z,44.17
2023-04-11T03:42:17.966Z,44.38
2023-04-11T03:42:42.239Z,44.32
2023-04-11T03:43:10.403Z,44.08
2023-04-11T03:43:32.610Z,44.42
2023-04-11T03:43:56.973Z,44.25
2023-04-11T03:44:19.051Z,44.44
2023-04-11T03:44:42.772Z,44.40
2023-04-11T03:45:05.839Z,44.49
2023-04-11T03:45:28.636Z,44.42
2023-04-11T03:45:53.383Z,44.32
2023-04-11T03:46:31.255Z,44.13
2023-04-11T03:46:52.971Z,44.16
2023-04-11T03:47:14.831Z,44.26
2023-04-11T03:47:38.425Z,43.86
2023-04-11T03:48:01.206Z,43.80
2023-04-11T03:48:32.308Z,44.09
2023-04-11T03:48:57.756Z,43.71
2023-04-11T03:49:20.736Z,43.82
2023-04-11T03:49:47.577Z,44.22
2023-04-11T03:50:10.821Z,44.10
2023-04-11T03:50:39.309Z,43.85
2023-04-11T03:51:01.053Z,43.41
2023-04-11T03:51:31.815Z,43.74
2023-04-11T03:52:00.371Z,43.56
2023-04-11T03:52:24.185Z,43.54
2023-04-11T03:52:46.256Z,43.59
2023-04-11T03:53:10.143Z,43.77
2023-04-11T03:53:33.306Z,43.84
2023-04-11T03:54:02.005Z,44.02
2023-04-11T03:54:28.372Z,43.68
2023-04-11T03:54:50.149Z,43.96
2023-04-11T03:55:12.409Z,43.84
2023-04-11T03:55:34.132Z,43.98
2023-04-11T03:56:00.228Z,43.70
2023-04-11T03:56:27.955Z,43.69
2023-04-11T03:56:50.107Z,43.54
2023-04-11T03:57:16.395Z,43.68
2023-04-11T03:57:39.813Z,44.17
2023-04-11T03:58:01.813Z,43.69
2023-04-11T03:58:24.437Z,43.83
2023-04-11T03:58:46.113Z,43.73
2023-04-11T03:59:09.454Z,43.94
2023-04-11T04:00:01.054Z,43.69
2023-04-11T04:00:23.802Z,43.53
2023-04-11T04:00:57.547Z,43.54
2023-04-11T04:01:19.660Z,43.66
2023-04-11T04:01:44.555Z,43.75
2023-04-11T04:02:07.408Z,43.98
2023-04-11T04:02:32.075Z,43.75
2023-04-11T04:02:54.322Z,43.92
2023-04-11T04:03:16.327Z,44.03
2023-04-11T04:03:39.585Z,43.69
2023-04-11T04:04:05.294Z,43.76
2023-04-11T04:04:33.893Z,44.01
2023-04-11T04:05:15.866Z,44.02
2023-04-11T04:05:38.337Z,43.90
2023-04-11T04:06:00.139Z,43.76
2023-04-11T04:06:22.390Z,44.01
2023-04-11T04:06:46.739Z,43.98
2023-04-11T04:07:09.970Z,43.97
2023-04-11T04:07:35.345Z,44.40
2023-04-11T04:08:06.658Z,44.23
2023-04-11T04:08:40.535Z,44.20
2023-04-11T04:09:03.946Z,44.22
2023-04-11T04:09:36.857Z,44.42
2023-04-11T04:10:00.090Z,44.39
2023-04-11T04:10:22.296Z,44.05
2023-04-11T04:10:47.078Z,44.06
2023-04-11T04:11:11.968Z,44.08
2023-04-11T04:11:33.843Z,44.17
2023-04-11T04:11:55.859Z,44.17
2023-04-11T04:12:26.556Z,44.05
2023-04-11T04:13:01.414Z,44.27
2023-04-11T04:13:30.034Z,44.59
2023-04-11T04:14:03.524Z,44.74
2023-04-11T04:14:26.152Z,44.49
2023-04-11T04:14:49.127Z,44.24
2023-04-11T04:15:14.766Z,44.15
2023-04-11T04:15:39.677Z,44.53
2023-04-11T04:16:04.101Z,44.32
2023-04-11T04:16:27.287Z,44.51
2023-04-11T04:16:52.753Z,44.06
2023-04-11T04:17:17.055Z,43.91
2023-04-11T04:17:39.233Z,44.20
2023-04-11T04:18:06.135Z,44.22
2023-04-11T04:18:43.298Z,44.13
2023-04-11T04:19:05.726Z,43.83
2023-04-11T04:19:27.586Z,44.10
2023-04-11T04:19:49.646Z,44.24
2023-04-11T04:20:13.304Z,43.95
2023-04-11T04:20:37.572Z,43.93
2023-04-11T04:20:59.866Z,43.90
2023-04-11T04:21:21.883Z,43.67
2023-04-11T04:21:46.985Z,43.99
2023-04-11T04:22:11.985Z,43.87
2023-04-11T04:22:38.819Z,44.12
2023-04-11T04:23:00.504Z,44.54
2023-04-11T04:23:47.153Z,44.33
2023-04-11T04:24:39.448Z,44.69
2023-04-11T04:25:12.672Z,44.15
2023-04-11T04:25:34.775Z,44.56
2023-04-11T04:25:58.184Z,44.71
2023-04-11T04:26:25.116Z,44.81
2023-04-11T04:27:08.928Z,44.58
2023-04-11T04:27:44.299Z,44.56
2023-04-11T04:28:08.119Z,44.56
2023-04-11T04:28:34.634Z,44.77
2023-04-11T04:29:04.446Z,44.80
2023-04-11T04:29:46.292Z,44.78
2023-04-11T04:30:15.668Z,44.71
2023-04-11T04:30:59.285Z,44.59
2023-04-11T04:31:29.798Z,44.42
2023-04-11T04:31:59.952Z,44.09
2023-04-11T04:32:31.396Z,44.10
2023-04-11T04:33:00.283Z,44.18
2023-04-11T04:33:49.481Z,44.25
2023-04-11T04:34:21.660Z,44.13
2023-04-11T04:34:47.019Z,44.37
2023-04-11T04:35:16.790Z,44.31
2023-04-11T04:35:38.723Z,44.29
2023-04-11T04:36:02.310Z,44.63
2023-04-11T04:36:26.564Z,44.36
2023-04-11T04:36:49.420Z,44.55
2023-04-11T04:37:21.824Z,44.95
2023-04-11T04:37:46.547Z,44.94
2023-04-11T04:38:22.239Z,44.70
2023-04-11T04:38:47.801Z,44.67
2023-04-11T04:39:10.617Z,44.53
2023-04-11T04:39:38.173Z,44.55
2023-04-11T04:40:07.714Z,44.67
2023-04-11T04:40:39.937Z,44.55
2023-04-11T04:41:02.227Z,44.61
2023-04-11T04:41:26.393Z,44.72
2023-04-11T04:41:58.338Z,44.49
2023-04-11T04:42:27.767Z,44.62
2023-04-11T04:42:58.915Z,44.03
2023-04-11T04:43:44.076Z,43.76
2023-04-11T04:44:16.555Z,44.15
2023-04-11T04:44:45.818Z,44.10
2023-04-11T04:45:11.894Z,44.09
2023-04-11T04:45:33.737Z,44.16
2023-04-11T04:45:55.911Z,43.98
2023-04-11T04:46:46.787Z,43.97
2023-04-11T04:47:08.940Z,44.06
2023-04-11T04:47:32.843Z,43.90
2023-04-11T04:47:57.923Z,43.80
2023-04-11T04:48:19.894Z,43.48
2023-04-11T04:48:42.767Z,43.50
2023-04-11T04:49:05.409Z,43.75
2023-04-11T04:49:27.579Z,44.04
2023-04-11T04:49:50.574Z,43.79
2023-04-11T04:50:12.317Z,43.74
2023-04-11T04:50:34.298Z,43.75
2023-04-11T04:50:56.133Z,43.58
2023-04-11T04:51:20.114Z,43.46
2023-04-11T04:51:41.844Z,43.29
2023-04-11T04:52:03.746Z,43.42
2023-04-11T04:52:27.246Z,43.64
2023-04-11T04:52:48.969Z,43.57
2023-04-11T04:53:11.739Z,43.72
2023-04-11T04:53:39.806Z,43.82
2023-04-11T04:54:04.827Z,43.82
2023-04-11T04:54:27.587Z,43.85
2023-04-11T04:54:49.300Z,43.66
2023-04-11T04:55:11.280Z,43.46
2023-04-11T04:55:33.406Z,43.42
2023-04-11T04:55:56.333Z,43.64
2023-04-11T04:56:18.979Z,43.81
2023-04-11T04:56:44.407Z,44.13
2023-04-11T04:57:07.338Z,43.93
2023-04-11T04:57:31.964Z,43.87
2023-04-11T04:57:53.887Z,43.75
2023-04-11T04:58:16.217Z,43.51
2023-04-11T04:58:38.241Z,43.57
2023-04-11T04:59:05.056Z,43.49
2023-04-11T04:59:28.091Z,43.41
2023-04-11T04:59:58.692Z,43.34
2023-04-11T05:00:22.518Z,43.30
2023-04-11T05:00:49.248Z,43.38
2023-04-11T05:01:17.088Z,43.57
2023-04-11T05:01:40.480Z,43.31
2023-04-11T05:02:05.131Z,43.28
2023-04-11T05:02:27.195Z,43.34
2023-04-11T05:02:54.704Z,43.25
2023-04-11T05:03:17.386Z,43.34
2023-04-11T05:03:41.134Z,43.58
2023-04-11T05:04:10.806Z,43.67
2023-04-11T05:04:40.208Z,43.44
2023-04-11T05:05:04.251Z,43.65
2023-04-11T05:05:27.463Z,43.67
2023-04-11T05:05:49.498Z,43.74
2023-04-11T05:06:12.254Z,43.34
2023-04-11T05:06:39.121Z,43.83
2023-04-11T05:07:01.564Z,44.06
2023-04-11T05:07:26.410Z,43.99
2023-04-11T05:07:48.422Z,43.75
2023-04-11T05:08:11.557Z,43.82
2023-04-11T05:08:34.251Z,43.93